sensor_id;sensor_type;location;lat;lon;timestamp;temperature;humidity
11617;DHT22;5864;52.998;9.068;2022-09-27T00:01:47;11.10;99.90
11617;DHT22;5864;52.998;9.068;2022-09-27T00:04:15;11.10;99.90
11617;DHT22;5864;52.998;9.068;2022-09-27T00:06:42;11.10;99.90
11617;DHT22;5864;52.998;9.068;2022-09-27T00:09:10;11.10;99.90
11617;DHT22;5864;52.998;9.068;2022-09-27T00:11:40;11.20;99.90
11617;DHT22;5864;52.998;9.068;2022-09-27T00:14:10;11.20;99.90
11617;DHT22;5864;52.998;9.068;2022-09-27T00:16:39;11.20;99.90
11617;DHT22;5864;52.998;9.068;2022-09-27T00:19:10;11.20;99.90
11617;DHT22;5864;52.998;9.068;2022-09-27T00:21:39;11.10;99.90
11617;DHT22;5864;52.998;9.068;2022-09-27T00:24:11;11.10;99.90
11617;DHT22;5864;52.998;9.068;2022-09-27T00:26:40;11.20;99.90
11617;DHT22;5864;52.998;9.068;2022-09-27T00:29:08;11.20;99.90
11617;DHT22;5864;52.998;9.068;2022-09-27T00:31:36;11.30;99.90
11617;DHT22;5864;52.998;9.068;2022-09-27T00:34:05;11.30;99.90
11617;DHT22;5864;52.998;9.068;2022-09-27T00:36:33;11.20;99.90
11617;DHT22;5864;52.998;9.068;2022-09-27T00:39:01;11.20;99.90
11617;DHT22;5864;52.998;9.068;2022-09-27T00:41:31;11.20;99.90
11617;DHT22;5864;52.998;9.068;2022-09-27T00:44:02;11.20;99.90
11617;DHT22;5864;52.998;9.068;2022-09-27T00:46:34;11.30;99.90
11617;DHT22;5864;52.998;9.068;2022-09-27T00:49:05;11.30;99.90
11617;DHT22;5864;52.998;9.068;2022-09-27T00:51:35;11.30;99.90
11617;DHT22;5864;52.998;9.068;2022-09-27T00:54:05;11.30;99.90
11617;DHT22;5864;52.998;9.068;2022-09-27T00:56:35;11.40;99.90
11617;DHT22;5864;52.998;9.068;2022-09-27T00:59:09;11.30;99.90
11617;DHT22;5864;52.998;9.068;2022-09-27T01:01:38;11.40;99.90
11617;DHT22;5864;52.998;9.068;2022-09-27T01:04:08;11.30;99.90
11617;DHT22;5864;52.998;9.068;2022-09-27T01:06:36;11.40;99.90
11617;DHT22;5864;52.998;9.068;2022-09-27T01:09:04;11.40;99.90
11617;DHT22;5864;52.998;9.068;2022-09-27T01:11:39;11.30;99.90
11617;DHT22;5864;52.998;9.068;2022-09-27T01:14:23;11.40;99.90
11617;DHT22;5864;52.998;9.068;2022-09-27T01:17:00;11.40;99.90
11617;DHT22;5864;52.998;9.068;2022-09-27T01:20:00;11.40;99.90
11617;DHT22;5864;52.998;9.068;2022-09-27T01:22:39;11.40;99.90
11617;DHT22;5864;52.998;9.068;2022-09-27T01:25:25;11.50;99.90
11617;DHT22;5864;52.998;9.068;2022-09-27T01:28:15;11.50;99.90
11617;DHT22;5864;52.998;9.068;2022-09-27T01:30:48;11.50;99.90
11617;DHT22;5864;52.998;9.068;2022-09-27T01:33:24;11.50;99.90
11617;DHT22;5864;52.998;9.068;2022-09-27T01:36:05;11.60;99.90
11617;DHT22;5864;52.998;9.068;2022-09-27T01:38:41;11.60;99.90
11617;DHT22;5864;52.998;9.068;2022-09-27T01:41:21;11.50;99.90
11617;DHT22;5864;52.998;9.068;2022-09-27T01:43:55;11.60;99.90
11617;DHT22;5864;52.998;9.068;2022-09-27T01:46:30;11.50;99.90
11617;DHT22;5864;52.998;9.068;2022-09-27T01:49:05;11.60;99.90
11617;DHT22;5864;52.998;9.068;2022-09-27T01:51:38;11.60;99.90
11617;DHT22;5864;52.998;9.068;2022-09-27T01:54:08;11.60;99.90
11617;DHT22;5864;52.998;9.068;2022-09-27T01:56:41;11.60;99.90
11617;DHT22;5864;52.998;9.068;2022-09-27T01:59:12;11.60;99.90
11617;DHT22;5864;52.998;9.068;2022-09-27T02:01:44;11.60;99.90
11617;DHT22;5864;52.998;9.068;2022-09-27T02:04:16;11.70;99.90
11617;DHT22;5864;52.998;9.068;2022-09-27T02:06:48;11.60;99.90
11617;DHT22;5864;52.998;9.068;2022-09-27T02:09:20;11.70;99.90
11617;DHT22;5864;52.998;9.068;2022-09-27T02:11:53;11.70;99.90
11617;DHT22;5864;52.998;9.068;2022-09-27T02:14:25;11.70;99.90
11617;DHT22;5864;52.998;9.068;2022-09-27T02:16:59;11.70;99.90
11617;DHT22;5864;52.998;9.068;2022-09-27T02:19:37;11.70;99.90
11617;DHT22;5864;52.998;9.068;2022-09-27T02:22:14;11.70;99.90
11617;DHT22;5864;52.998;9.068;2022-09-27T02:24:47;11.70;99.90
11617;DHT22;5864;52.998;9.068;2022-09-27T02:27:20;11.70;99.90
11617;DHT22;5864;52.998;9.068;2022-09-27T02:29:53;11.70;99.90
11617;DHT22;5864;52.998;9.068;2022-09-27T02:32:26;11.70;99.90
11617;DHT22;5864;52.998;9.068;2022-09-27T02:34:55;11.70;99.90
11617;DHT22;5864;52.998;9.068;2022-09-27T02:37:23;11.70;99.90
11617;DHT22;5864;52.998;9.068;2022-09-27T02:39:51;11.70;99.90
11617;DHT22;5864;52.998;9.068;2022-09-27T02:42:18;11.70;99.90
11617;DHT22;5864;52.998;9.068;2022-09-27T02:44:46;11.70;99.90
11617;DHT22;5864;52.998;9.068;2022-09-27T02:47:30;11.70;99.90
11617;DHT22;5864;52.998;9.068;2022-09-27T02:50:29;11.70;99.90
11617;DHT22;5864;52.998;9.068;2022-09-27T02:53:05;11.60;99.90
11617;DHT22;5864;52.998;9.068;2022-09-27T02:55:43;11.60;99.90
11617;DHT22;5864;52.998;9.068;2022-09-27T02:58:21;11.60;99.90
11617;DHT22;5864;52.998;9.068;2022-09-27T03:00:56;11.60;99.90
11617;DHT22;5864;52.998;9.068;2022-09-27T03:03:32;11.60;99.90
11617;DHT22;5864;52.998;9.068;2022-09-27T03:06:03;11.60;99.90
11617;DHT22;5864;52.998;9.068;2022-09-27T03:08:31;11.50;99.90
11617;DHT22;5864;52.998;9.068;2022-09-27T03:10:59;11.60;99.90
11617;DHT22;5864;52.998;9.068;2022-09-27T03:13:27;11.60;99.90
11617;DHT22;5864;52.998;9.068;2022-09-27T03:15:54;11.60;99.90
11617;DHT22;5864;52.998;9.068;2022-09-27T03:18:22;11.50;99.90
11617;DHT22;5864;52.998;9.068;2022-09-27T03:20:52;11.50;99.90
11617;DHT22;5864;52.998;9.068;2022-09-27T03:23:20;11.50;99.90
11617;DHT22;5864;52.998;9.068;2022-09-27T03:25:48;11.60;99.90
11617;DHT22;5864;52.998;9.068;2022-09-27T03:28:15;11.60;99.90
11617;DHT22;5864;52.998;9.068;2022-09-27T03:30:44;11.50;99.90
11617;DHT22;5864;52.998;9.068;2022-09-27T03:33:12;11.60;99.90
11617;DHT22;5864;52.998;9.068;2022-09-27T03:35:41;11.50;99.90
11617;DHT22;5864;52.998;9.068;2022-09-27T03:38:10;11.40;99.90
11617;DHT22;5864;52.998;9.068;2022-09-27T03:40:38;11.40;99.90
11617;DHT22;5864;52.998;9.068;2022-09-27T03:43:05;11.40;99.90
11617;DHT22;5864;52.998;9.068;2022-09-27T03:45:33;11.50;99.90
11617;DHT22;5864;52.998;9.068;2022-09-27T03:48:00;11.50;99.90
11617;DHT22;5864;52.998;9.068;2022-09-27T03:50:29;11.50;99.90
11617;DHT22;5864;52.998;9.068;2022-09-27T03:52:57;11.50;99.90
11617;DHT22;5864;52.998;9.068;2022-09-27T03:55:25;11.40;99.90
11617;DHT22;5864;52.998;9.068;2022-09-27T03:57:53;11.40;99.90
11617;DHT22;5864;52.998;9.068;2022-09-27T04:00:21;11.30;99.90
11617;DHT22;5864;52.998;9.068;2022-09-27T04:02:49;11.40;99.90
11617;DHT22;5864;52.998;9.068;2022-09-27T04:05:17;11.30;99.90
11617;DHT22;5864;52.998;9.068;2022-09-27T04:07:45;12.20;99.90
11617;DHT22;5864;52.998;9.068;2022-09-27T04:10:15;11.30;99.90
11617;DHT22;5864;52.998;9.068;2022-09-27T04:12:44;11.30;99.90
11617;DHT22;5864;52.998;9.068;2022-09-27T04:15:12;11.30;99.90
11617;DHT22;5864;52.998;9.068;2022-09-27T04:17:40;11.20;99.90
11617;DHT22;5864;52.998;9.068;2022-09-27T04:20:09;11.20;99.90
11617;DHT22;5864;52.998;9.068;2022-09-27T04:22:38;11.20;99.90
11617;DHT22;5864;52.998;9.068;2022-09-27T04:25:07;11.20;99.90
11617;DHT22;5864;52.998;9.068;2022-09-27T04:27:35;11.20;99.90
11617;DHT22;5864;52.998;9.068;2022-09-27T04:30:06;11.20;99.90
11617;DHT22;5864;52.998;9.068;2022-09-27T04:32:33;11.20;99.90
11617;DHT22;5864;52.998;9.068;2022-09-27T04:35:01;11.20;99.90
11617;DHT22;5864;52.998;9.068;2022-09-27T04:37:46;11.20;99.90
11617;DHT22;5864;52.998;9.068;2022-09-27T04:40:14;11.20;99.90
11617;DHT22;5864;52.998;9.068;2022-09-27T04:42:42;11.10;99.90
11617;DHT22;5864;52.998;9.068;2022-09-27T04:45:11;11.10;99.90
11617;DHT22;5864;52.998;9.068;2022-09-27T04:47:41;11.20;99.90
11617;DHT22;5864;52.998;9.068;2022-09-27T04:50:09;11.20;99.90
11617;DHT22;5864;52.998;9.068;2022-09-27T04:52:37;11.10;99.90
11617;DHT22;5864;52.998;9.068;2022-09-27T04:55:07;11.10;99.90
11617;DHT22;5864;52.998;9.068;2022-09-27T04:57:34;11.10;99.90
11617;DHT22;5864;52.998;9.068;2022-09-27T05:00:02;11.10;99.90
11617;DHT22;5864;52.998;9.068;2022-09-27T05:02:31;11.10;99.90
11617;DHT22;5864;52.998;9.068;2022-09-27T05:04:59;11.10;99.90
11617;DHT22;5864;52.998;9.068;2022-09-27T05:07:27;11.10;99.90
11617;DHT22;5864;52.998;9.068;2022-09-27T05:09:55;11.10;99.90
11617;DHT22;5864;52.998;9.068;2022-09-27T05:12:23;11.20;99.90
11617;DHT22;5864;52.998;9.068;2022-09-27T05:14:52;11.20;99.90
11617;DHT22;5864;52.998;9.068;2022-09-27T05:17:19;11.10;99.90
11617;DHT22;5864;52.998;9.068;2022-09-27T05:19:49;11.10;99.90
11617;DHT22;5864;52.998;9.068;2022-09-27T05:22:16;11.10;99.90
11617;DHT22;5864;52.998;9.068;2022-09-27T05:24:45;11.10;99.90
11617;DHT22;5864;52.998;9.068;2022-09-27T05:27:14;11.10;99.90
11617;DHT22;5864;52.998;9.068;2022-09-27T05:29:43;11.10;99.90
11617;DHT22;5864;52.998;9.068;2022-09-27T05:32:11;11.10;99.90
11617;DHT22;5864;52.998;9.068;2022-09-27T05:34:42;11.10;99.90
11617;DHT22;5864;52.998;9.068;2022-09-27T05:37:15;11.00;99.90
11617;DHT22;5864;52.998;9.068;2022-09-27T05:39:43;11.00;99.90
11617;DHT22;5864;52.998;9.068;2022-09-27T05:42:11;11.00;99.90
11617;DHT22;5864;52.998;9.068;2022-09-27T05:44:40;11.00;99.90
11617;DHT22;5864;52.998;9.068;2022-09-27T05:47:12;11.10;99.90
11617;DHT22;5864;52.998;9.068;2022-09-27T05:49:40;11.00;99.90
11617;DHT22;5864;52.998;9.068;2022-09-27T05:52:07;11.00;99.90
11617;DHT22;5864;52.998;9.068;2022-09-27T05:54:37;11.00;99.90
11617;DHT22;5864;52.998;9.068;2022-09-27T05:57:04;11.00;99.90
11617;DHT22;5864;52.998;9.068;2022-09-27T05:59:33;11.00;99.90
11617;DHT22;5864;52.998;9.068;2022-09-27T06:02:01;11.00;99.90
11617;DHT22;5864;52.998;9.068;2022-09-27T06:04:28;11.00;99.90
11617;DHT22;5864;52.998;9.068;2022-09-27T06:06:56;11.00;99.90
11617;DHT22;5864;52.998;9.068;2022-09-27T06:09:24;11.00;99.90
11617;DHT22;5864;52.998;9.068;2022-09-27T06:11:54;10.90;99.90
11617;DHT22;5864;52.998;9.068;2022-09-27T06:14:22;11.00;99.90
11617;DHT22;5864;52.998;9.068;2022-09-27T06:16:49;11.00;99.90
11617;DHT22;5864;52.998;9.068;2022-09-27T06:19:19;11.00;99.90
11617;DHT22;5864;52.998;9.068;2022-09-27T06:21:48;11.00;99.90
11617;DHT22;5864;52.998;9.068;2022-09-27T06:24:16;11.00;99.90
11617;DHT22;5864;52.998;9.068;2022-09-27T06:26:44;11.10;99.90
11617;DHT22;5864;52.998;9.068;2022-09-27T06:29:13;11.10;99.90
11617;DHT22;5864;52.998;9.068;2022-09-27T06:31:40;11.20;99.90
11617;DHT22;5864;52.998;9.068;2022-09-27T06:34:08;11.20;99.90
11617;DHT22;5864;52.998;9.068;2022-09-27T06:36:35;11.20;99.90
11617;DHT22;5864;52.998;9.068;2022-09-27T06:39:03;11.30;99.90
11617;DHT22;5864;52.998;9.068;2022-09-27T06:41:30;11.50;99.90
11617;DHT22;5864;52.998;9.068;2022-09-27T06:43:58;11.60;99.90
11617;DHT22;5864;52.998;9.068;2022-09-27T06:46:27;11.60;99.90
11617;DHT22;5864;52.998;9.068;2022-09-27T06:48:55;11.60;99.90
11617;DHT22;5864;52.998;9.068;2022-09-27T06:51:22;11.40;99.90
11617;DHT22;5864;52.998;9.068;2022-09-27T06:53:50;11.40;99.90
11617;DHT22;5864;52.998;9.068;2022-09-27T06:56:18;11.40;99.90
11617;DHT22;5864;52.998;9.068;2022-09-27T06:58:45;11.40;99.90
11617;DHT22;5864;52.998;9.068;2022-09-27T07:01:31;11.30;99.90
11617;DHT22;5864;52.998;9.068;2022-09-27T07:03:59;11.40;99.90
11617;DHT22;5864;52.998;9.068;2022-09-27T07:06:27;11.50;99.90
11617;DHT22;5864;52.998;9.068;2022-09-27T07:08:56;11.50;99.90
11617;DHT22;5864;52.998;9.068;2022-09-27T07:11:23;11.60;99.90
11617;DHT22;5864;52.998;9.068;2022-09-27T07:13:51;11.70;99.90
11617;DHT22;5864;52.998;9.068;2022-09-27T07:16:18;11.70;99.90
11617;DHT22;5864;52.998;9.068;2022-09-27T07:18:49;11.70;99.90
11617;DHT22;5864;52.998;9.068;2022-09-27T07:21:16;11.70;99.90
11617;DHT22;5864;52.998;9.068;2022-09-27T07:23:44;11.80;99.90
11617;DHT22;5864;52.998;9.068;2022-09-27T07:26:11;11.80;99.90
11617;DHT22;5864;52.998;9.068;2022-09-27T07:28:39;11.70;99.90
11617;DHT22;5864;52.998;9.068;2022-09-27T07:31:07;11.80;99.90
11617;DHT22;5864;52.998;9.068;2022-09-27T07:33:35;11.90;99.90
11617;DHT22;5864;52.998;9.068;2022-09-27T07:36:08;12.30;99.90
11617;DHT22;5864;52.998;9.068;2022-09-27T07:38:35;12.70;99.90
11617;DHT22;5864;52.998;9.068;2022-09-27T07:41:07;12.90;99.90
11617;DHT22;5864;52.998;9.068;2022-09-27T07:43:34;13.00;99.90
11617;DHT22;5864;52.998;9.068;2022-09-27T07:46:02;13.00;99.90
11617;DHT22;5864;52.998;9.068;2022-09-27T07:48:30;12.90;99.90
11617;DHT22;5864;52.998;9.068;2022-09-27T07:50:57;12.70;99.90
11617;DHT22;5864;52.998;9.068;2022-09-27T07:53:26;12.50;99.90
11617;DHT22;5864;52.998;9.068;2022-09-27T07:55:54;12.50;99.90
11617;DHT22;5864;52.998;9.068;2022-09-27T07:58:22;14.10;99.90
11617;DHT22;5864;52.998;9.068;2022-09-27T08:00:49;12.30;99.90
11617;DHT22;5864;52.998;9.068;2022-09-27T08:03:17;12.20;99.90
11617;DHT22;5864;52.998;9.068;2022-09-27T08:05:45;12.30;99.90
11617;DHT22;5864;52.998;9.068;2022-09-27T08:08:13;12.20;99.90
11617;DHT22;5864;52.998;9.068;2022-09-27T08:10:43;12.10;99.90
11617;DHT22;5864;52.998;9.068;2022-09-27T08:13:12;12.10;99.90
11617;DHT22;5864;52.998;9.068;2022-09-27T08:15:40;12.20;99.90
11617;DHT22;5864;52.998;9.068;2022-09-27T08:18:08;12.30;99.90
11617;DHT22;5864;52.998;9.068;2022-09-27T08:20:35;12.30;99.90
11617;DHT22;5864;52.998;9.068;2022-09-27T08:23:03;12.30;99.90
11617;DHT22;5864;52.998;9.068;2022-09-27T08:25:31;12.30;99.90
11617;DHT22;5864;52.998;9.068;2022-09-27T08:28:01;12.30;99.90
11617;DHT22;5864;52.998;9.068;2022-09-27T08:30:30;12.40;99.90
11617;DHT22;5864;52.998;9.068;2022-09-27T08:33:00;12.40;99.90
11617;DHT22;5864;52.998;9.068;2022-09-27T08:35:29;12.40;99.90
11617;DHT22;5864;52.998;9.068;2022-09-27T08:38:01;12.40;99.90
11617;DHT22;5864;52.998;9.068;2022-09-27T08:40:39;12.50;99.90
11617;DHT22;5864;52.998;9.068;2022-09-27T08:43:17;12.40;99.90
11617;DHT22;5864;52.998;9.068;2022-09-27T08:45:58;12.30;99.90
11617;DHT22;5864;52.998;9.068;2022-09-27T08:48:28;12.20;99.90
11617;DHT22;5864;52.998;9.068;2022-09-27T08:50:56;12.20;99.90
11617;DHT22;5864;52.998;9.068;2022-09-27T08:53:27;12.30;99.90
11617;DHT22;5864;52.998;9.068;2022-09-27T08:55:58;12.40;99.90
11617;DHT22;5864;52.998;9.068;2022-09-27T08:58:32;12.50;99.90
11617;DHT22;5864;52.998;9.068;2022-09-27T09:01:02;12.30;99.90
11617;DHT22;5864;52.998;9.068;2022-09-27T09:03:34;12.30;99.90
11617;DHT22;5864;52.998;9.068;2022-09-27T09:06:10;12.30;99.90
11617;DHT22;5864;52.998;9.068;2022-09-27T09:08:51;12.30;99.90
11617;DHT22;5864;52.998;9.068;2022-09-27T09:11:28;12.30;99.90
11617;DHT22;5864;52.998;9.068;2022-09-27T09:14:50;12.30;99.90
11617;DHT22;5864;52.998;9.068;2022-09-27T09:17:31;12.30;99.90
11617;DHT22;5864;52.998;9.068;2022-09-27T09:20:15;12.40;99.90
11617;DHT22;5864;52.998;9.068;2022-09-27T09:23:01;12.50;99.90
11617;DHT22;5864;52.998;9.068;2022-09-27T09:25:35;12.50;99.90
11617;DHT22;5864;52.998;9.068;2022-09-27T09:28:21;12.60;99.90
11617;DHT22;5864;52.998;9.068;2022-09-27T09:31:03;12.60;99.90
11617;DHT22;5864;52.998;9.068;2022-09-27T09:33:36;12.50;99.90
11617;DHT22;5864;52.998;9.068;2022-09-27T09:36:10;12.50;99.90
11617;DHT22;5864;52.998;9.068;2022-09-27T09:38:45;12.50;99.90
11617;DHT22;5864;52.998;9.068;2022-09-27T09:41:19;12.50;99.90
11617;DHT22;5864;52.998;9.068;2022-09-27T09:43:51;12.60;99.90
11617;DHT22;5864;52.998;9.068;2022-09-27T09:46:27;12.60;99.90
11617;DHT22;5864;52.998;9.068;2022-09-27T09:49:01;12.80;99.90
11617;DHT22;5864;52.998;9.068;2022-09-27T09:51:37;12.80;99.90
11617;DHT22;5864;52.998;9.068;2022-09-27T09:54:11;12.80;99.90
11617;DHT22;5864;52.998;9.068;2022-09-27T09:56:43;12.60;99.90
11617;DHT22;5864;52.998;9.068;2022-09-27T09:59:16;12.50;99.90
11617;DHT22;5864;52.998;9.068;2022-09-27T10:01:47;12.40;99.90
11617;DHT22;5864;52.998;9.068;2022-09-27T10:04:18;12.40;99.90
11617;DHT22;5864;52.998;9.068;2022-09-27T10:06:46;12.40;99.90
11617;DHT22;5864;52.998;9.068;2022-09-27T10:09:15;12.50;99.90
11617;DHT22;5864;52.998;9.068;2022-09-27T10:11:44;12.50;99.90
11617;DHT22;5864;52.998;9.068;2022-09-27T10:14:14;12.50;99.90
11617;DHT22;5864;52.998;9.068;2022-09-27T10:16:46;12.40;99.90
11617;DHT22;5864;52.998;9.068;2022-09-27T10:19:17;12.30;99.90
11617;DHT22;5864;52.998;9.068;2022-09-27T10:21:48;12.30;99.90
11617;DHT22;5864;52.998;9.068;2022-09-27T10:24:17;12.30;99.90
11617;DHT22;5864;52.998;9.068;2022-09-27T10:26:46;12.30;99.90
11617;DHT22;5864;52.998;9.068;2022-09-27T10:29:21;12.30;99.90
11617;DHT22;5864;52.998;9.068;2022-09-27T10:31:51;12.40;99.90
11617;DHT22;5864;52.998;9.068;2022-09-27T10:34:29;12.40;99.90
11617;DHT22;5864;52.998;9.068;2022-09-27T10:37:14;12.40;99.90
11617;DHT22;5864;52.998;9.068;2022-09-27T10:39:46;12.40;99.90
11617;DHT22;5864;52.998;9.068;2022-09-27T10:42:22;12.30;99.90
11617;DHT22;5864;52.998;9.068;2022-09-27T10:44:49;12.30;99.90
11617;DHT22;5864;52.998;9.068;2022-09-27T10:47:20;12.40;99.90
11617;DHT22;5864;52.998;9.068;2022-09-27T10:49:50;12.40;99.90
11617;DHT22;5864;52.998;9.068;2022-09-27T10:52:20;12.30;99.90
11617;DHT22;5864;52.998;9.068;2022-09-27T10:54:53;12.30;99.90
11617;DHT22;5864;52.998;9.068;2022-09-27T10:57:23;12.30;99.90
11617;DHT22;5864;52.998;9.068;2022-09-27T10:59:53;12.30;99.90
11617;DHT22;5864;52.998;9.068;2022-09-27T11:02:25;12.60;99.90
11617;DHT22;5864;52.998;9.068;2022-09-27T11:05:09;12.70;99.90
11617;DHT22;5864;52.998;9.068;2022-09-27T11:07:48;12.80;99.90
11617;DHT22;5864;52.998;9.068;2022-09-27T11:10:23;12.80;99.90
11617;DHT22;5864;52.998;9.068;2022-09-27T11:13:06;12.80;99.90
11617;DHT22;5864;52.998;9.068;2022-09-27T11:15:44;12.90;99.90
11617;DHT22;5864;52.998;9.068;2022-09-27T11:18:22;13.00;99.90
11617;DHT22;5864;52.998;9.068;2022-09-27T11:20:58;13.10;99.90
11617;DHT22;5864;52.998;9.068;2022-09-27T11:23:46;13.10;99.90
11617;DHT22;5864;52.998;9.068;2022-09-27T11:26:33;13.10;99.90
11617;DHT22;5864;52.998;9.068;2022-09-27T11:29:11;13.20;99.90
11617;DHT22;5864;52.998;9.068;2022-09-27T11:31:51;13.10;99.90
11617;DHT22;5864;52.998;9.068;2022-09-27T11:34:40;13.20;99.90
11617;DHT22;5864;52.998;9.068;2022-09-27T11:37:15;13.30;99.90
11617;DHT22;5864;52.998;9.068;2022-09-27T11:40:10;13.40;99.90
11617;DHT22;5864;52.998;9.068;2022-09-27T11:43:05;13.40;99.90
11617;DHT22;5864;52.998;9.068;2022-09-27T11:45:44;13.40;99.90
11617;DHT22;5864;52.998;9.068;2022-09-27T11:48:26;13.40;99.90
11617;DHT22;5864;52.998;9.068;2022-09-27T11:51:10;13.20;99.90
11617;DHT22;5864;52.998;9.068;2022-09-27T11:53:52;13.30;99.90
11617;DHT22;5864;52.998;9.068;2022-09-27T11:56:33;13.30;99.90
11617;DHT22;5864;52.998;9.068;2022-09-27T12:05:29;13.40;99.90
11617;DHT22;5864;52.998;9.068;2022-09-27T12:08:14;13.30;99.90
11617;DHT22;5864;52.998;9.068;2022-09-27T12:10:47;13.00;99.90
11617;DHT22;5864;52.998;9.068;2022-09-27T12:13:18;13.00;99.90
11617;DHT22;5864;52.998;9.068;2022-09-27T12:15:49;13.20;99.90
11617;DHT22;5864;52.998;9.068;2022-09-27T12:18:24;13.20;99.90
11617;DHT22;5864;52.998;9.068;2022-09-27T12:20:54;13.20;99.90
11617;DHT22;5864;52.998;9.068;2022-09-27T12:23:27;13.30;99.90
11617;DHT22;5864;52.998;9.068;2022-09-27T12:26:02;13.30;99.90
11617;DHT22;5864;52.998;9.068;2022-09-27T12:28:35;13.30;99.90
11617;DHT22;5864;52.998;9.068;2022-09-27T12:31:13;13.30;99.90
11617;DHT22;5864;52.998;9.068;2022-09-27T12:33:47;13.30;99.90
11617;DHT22;5864;52.998;9.068;2022-09-27T12:36:17;13.20;99.90
11617;DHT22;5864;52.998;9.068;2022-09-27T12:38:52;13.20;99.90
11617;DHT22;5864;52.998;9.068;2022-09-27T12:41:23;13.30;99.90
11617;DHT22;5864;52.998;9.068;2022-09-27T12:43:51;13.40;99.90
11617;DHT22;5864;52.998;9.068;2022-09-27T12:46:26;13.30;99.90
11617;DHT22;5864;52.998;9.068;2022-09-27T12:49:02;13.30;99.90
11617;DHT22;5864;52.998;9.068;2022-09-27T12:51:35;13.10;99.90
11617;DHT22;5864;52.998;9.068;2022-09-27T12:54:37;13.20;99.90
11617;DHT22;5864;52.998;9.068;2022-09-27T12:57:20;13.30;99.90
11617;DHT22;5864;52.998;9.068;2022-09-27T13:00:03;13.30;99.90
11617;DHT22;5864;52.998;9.068;2022-09-27T13:02:55;13.20;99.90
11617;DHT22;5864;52.998;9.068;2022-09-27T13:05:49;13.30;99.90
11617;DHT22;5864;52.998;9.068;2022-09-27T13:08:34;13.20;99.90
11617;DHT22;5864;52.998;9.068;2022-09-27T13:11:17;13.10;99.90
11617;DHT22;5864;52.998;9.068;2022-09-27T13:13:47;13.10;99.90
11617;DHT22;5864;52.998;9.068;2022-09-27T13:16:14;13.20;99.90
11617;DHT22;5864;52.998;9.068;2022-09-27T13:18:54;13.30;99.90
11617;DHT22;5864;52.998;9.068;2022-09-27T13:21:57;13.30;99.90
11617;DHT22;5864;52.998;9.068;2022-09-27T13:24:42;13.30;99.90
11617;DHT22;5864;52.998;9.068;2022-09-27T13:27:38;13.20;99.90
11617;DHT22;5864;52.998;9.068;2022-09-27T13:36:26;13.10;99.90
11617;DHT22;5864;52.998;9.068;2022-09-27T13:39:02;13.10;99.90
11617;DHT22;5864;52.998;9.068;2022-09-27T13:41:40;13.00;99.90
11617;DHT22;5864;52.998;9.068;2022-09-27T13:44:14;13.00;99.90
11617;DHT22;5864;52.998;9.068;2022-09-27T13:46:46;13.00;99.90
11617;DHT22;5864;52.998;9.068;2022-09-27T13:49:19;13.10;99.90
11617;DHT22;5864;52.998;9.068;2022-09-27T13:51:49;13.20;99.90
11617;DHT22;5864;52.998;9.068;2022-09-27T13:54:39;13.10;99.90
11617;DHT22;5864;52.998;9.068;2022-09-27T13:57:41;13.00;99.90
11617;DHT22;5864;52.998;9.068;2022-09-27T14:00:12;13.00;99.90
11617;DHT22;5864;52.998;9.068;2022-09-27T14:02:48;13.10;99.90
11617;DHT22;5864;52.998;9.068;2022-09-27T14:05:22;11.40;99.90
11617;DHT22;5864;52.998;9.068;2022-09-27T14:07:51;13.10;99.90
11617;DHT22;5864;52.998;9.068;2022-09-27T14:10:20;13.10;99.90
11617;DHT22;5864;52.998;9.068;2022-09-27T14:12:51;13.10;99.90
11617;DHT22;5864;52.998;9.068;2022-09-27T14:15:23;12.90;99.90
11617;DHT22;5864;52.998;9.068;2022-09-27T14:17:52;12.90;99.90
11617;DHT22;5864;52.998;9.068;2022-09-27T14:20:35;12.90;99.90
11617;DHT22;5864;52.998;9.068;2022-09-27T14:23:04;12.80;99.90
11617;DHT22;5864;52.998;9.068;2022-09-27T14:25:31;12.80;99.90
11617;DHT22;5864;52.998;9.068;2022-09-27T14:27:59;12.60;99.90
11617;DHT22;5864;52.998;9.068;2022-09-27T14:30:28;12.60;99.90
11617;DHT22;5864;52.998;9.068;2022-09-27T14:32:57;12.50;99.90
11617;DHT22;5864;52.998;9.068;2022-09-27T14:35:30;12.40;99.90
11617;DHT22;5864;52.998;9.068;2022-09-27T14:38:16;11.50;99.90
11617;DHT22;5864;52.998;9.068;2022-09-27T14:40:55;12.30;99.90
11617;DHT22;5864;52.998;9.068;2022-09-27T14:43:24;12.30;99.90
11617;DHT22;5864;52.998;9.068;2022-09-27T14:45:58;12.20;99.90
11617;DHT22;5864;52.998;9.068;2022-09-27T14:48:27;12.20;99.90
11617;DHT22;5864;52.998;9.068;2022-09-27T14:50:56;12.20;99.90
11617;DHT22;5864;52.998;9.068;2022-09-27T14:53:29;12.20;99.90
11617;DHT22;5864;52.998;9.068;2022-09-27T14:55:57;12.20;99.90
11617;DHT22;5864;52.998;9.068;2022-09-27T14:58:26;12.20;99.90
11617;DHT22;5864;52.998;9.068;2022-09-27T15:00:56;11.90;99.90
11617;DHT22;5864;52.998;9.068;2022-09-27T15:03:28;12.20;99.90
11617;DHT22;5864;52.998;9.068;2022-09-27T15:05:57;12.20;99.90
11617;DHT22;5864;52.998;9.068;2022-09-27T15:08:27;12.20;99.90
11617;DHT22;5864;52.998;9.068;2022-09-27T15:10:58;12.20;99.90
11617;DHT22;5864;52.998;9.068;2022-09-27T15:13:27;12.20;99.90
11617;DHT22;5864;52.998;9.068;2022-09-27T15:15:56;12.20;99.90
11617;DHT22;5864;52.998;9.068;2022-09-27T15:18:33;12.10;99.90
11617;DHT22;5864;52.998;9.068;2022-09-27T15:21:09;12.20;99.90
11617;DHT22;5864;52.998;9.068;2022-09-27T15:23:38;12.20;99.90
11617;DHT22;5864;52.998;9.068;2022-09-27T15:26:11;12.10;99.90
11617;DHT22;5864;52.998;9.068;2022-09-27T15:28:45;12.10;99.90
11617;DHT22;5864;52.998;9.068;2022-09-27T15:31:15;12.20;99.90
11617;DHT22;5864;52.998;9.068;2022-09-27T15:33:52;12.20;99.90
11617;DHT22;5864;52.998;9.068;2022-09-27T15:36:51;12.20;99.90
11617;DHT22;5864;52.998;9.068;2022-09-27T15:39:26;12.20;99.90
11617;DHT22;5864;52.998;9.068;2022-09-27T15:42:06;12.20;99.90
11617;DHT22;5864;52.998;9.068;2022-09-27T15:44:37;12.20;99.90
11617;DHT22;5864;52.998;9.068;2022-09-27T15:47:38;12.20;99.90
11617;DHT22;5864;52.998;9.068;2022-09-27T15:50:31;12.20;99.90
11617;DHT22;5864;52.998;9.068;2022-09-27T15:53:00;12.10;99.90
11617;DHT22;5864;52.998;9.068;2022-09-27T15:55:28;12.20;99.90
11617;DHT22;5864;52.998;9.068;2022-09-27T15:58:01;12.20;99.90
11617;DHT22;5864;52.998;9.068;2022-09-27T16:00:29;12.30;99.90
11617;DHT22;5864;52.998;9.068;2022-09-27T16:02:58;12.30;99.90
11617;DHT22;5864;52.998;9.068;2022-09-27T16:05:26;12.30;99.90
11617;DHT22;5864;52.998;9.068;2022-09-27T16:07:55;12.30;99.90
11617;DHT22;5864;52.998;9.068;2022-09-27T16:10:26;12.30;99.90
11617;DHT22;5864;52.998;9.068;2022-09-27T16:12:55;12.40;99.90
11617;DHT22;5864;52.998;9.068;2022-09-27T16:15:23;12.50;99.90
11617;DHT22;5864;52.998;9.068;2022-09-27T16:17:50;12.60;99.90
11617;DHT22;5864;52.998;9.068;2022-09-27T16:20:21;12.50;99.90
11617;DHT22;5864;52.998;9.068;2022-09-27T16:22:50;12.40;99.90
11617;DHT22;5864;52.998;9.068;2022-09-27T16:25:18;12.50;99.90
11617;DHT22;5864;52.998;9.068;2022-09-27T16:27:46;12.60;99.90
11617;DHT22;5864;52.998;9.068;2022-09-27T16:30:14;12.60;99.90
11617;DHT22;5864;52.998;9.068;2022-09-27T16:32:43;12.60;99.90